Salem, South Dakota
Current Conditions -  °F | °C
As of 1:15 PM on Friday 21 Nov 2014 (Local Time) from KMDS Reporting Station
Clear Clear  
Wind Chill: 20°   Ceiling: Unl
Heat Index: 32°   Visibility: 10mi
Dew Point: 27°   Wind: 21mph
Humidity: 80%   Direction: 190°S
Pressure: 29.89"   Gusts: 26mph
Location:  43.72°N, 97.39°W
Report Text: KMDS 211915Z AUTO 19018G23KT 10SM CLR 00/M03 A2989 RMK AO2
Loading
Personal Weather Stations






























Interactive Weather Map New forecast layout! Learn more

10-Day Weather Forecast

Advertisements
Track Severe Weather on mobile